Timeline UpdatesTrip UpdatesNews PostsPvt PostsTravel TipsAdmin PostsConv PostsFollowed PostsChat RequestsBlog PostsPNR Posts

Disclaimer
Search
 
 
Thu Aug 28, 2014 04:29:47 ISTHomeTrainsΣChainsAtlasPNRForumGalleryNewsFAQTripsMembersLoginFeedback
No Recent News for this Train
Other Trains in the News **new
Latest...
running with SX1 (duration not known)....#1181763
Fri Aug 08, 2014 (06:37PM)
⇐ Return Journey: Train# 19166

19165/Sabarmati Express

Feb 01 2014 (10:56AM)
Change Departure Station:
Change Arrival Station:
Post a Train Travel TipPost a Train Travel Tip **new
Post a Comment/Question/Picture/VideoPost a Comment/Question/Picture/Video
Pantry/Catering
✕ NO Pantry Car
✕ NO Catering
Loco/Rake Reversals
BRC/Vadodara Junction (7); SHG/Shahganj Junction (4); BINA/Bina Junction (4); SPJ/Samastipur Junction (9);
RSA - Rake Sharing
19165/19166/19167/19168 has RSA
Rake/Coach Composition
LOCO-SLR-GS-GS-A1-B1-B2-S1-S2-S3-S4-S5-S6-S7-S8-S9-S10-S11-S12-S13-SX1-GS-GS-SLR
Loco
ADI-RTM :BRC WAP4E RTM-DBG :RTM WDM3A
News    PNR    Forum    Time-Table    Availability    Fare Chart    Map    Arr/Dep History    Trips    Gallery    ΣChains    X/O    Timeline    
Travel Time: 1h 55m    4 halts    Distance: 100 km    Avg Speed: 52 km/hr
Type: Mail/Express
Zone: WR/Western
Departs @ 20:50 (Avg 2m late)
Platform# 2
S  W F 
Ahmedabad Junction/ADI 
Arrives @ 22:45 (Avg 22m late)
Platform# 7
S  W F 
Vadodara Junction/BRC 

4 halts. 21 intermediate Stations between Ahmedabad Junction and Vadodara Junction

Show ALL intermediate Stations  Show Old Time-Table

#CodeStation NameX/OArrivesAvgDepartsAvgHaltPFDay#KmSpeedElevZoneAddress
1ADI»Ahmedabad Junction (12)»  -20:50+2210.02751mWRAhmedabad, Gujarat
2MANManinagar (2)X  20:57+020:59+02m213.26250mWRAhmadabad, Gujarat
3MHDMahemdavad Kheda Road (4)X  21:23+1921:25+192m2128.07537mWRMahemdavad, Gujarat
4NDNadiad Junction (4)  21:39+1921:41+182m1145.66237mWRNadiad, Gujarat
5ANNDAnand Junction (6)X  21:59+1922:01+192m1164.14944mWRAnand, Gujarat
6BRC•Vadodara Junction (7)•XO22:45+2223:10+1925m7199.85336mWRVadodara 390005, Gujarat
7GDAGodhra Junction (3)X  00:33+3200:35+322m--2173.780122mWRGodhra, Gujarat
8DHDDahod (3)X  01:30+1:0301:32+1:032m--2246.890313mWRDahod, Gujarat
9MGNMeghnagar (3)X  01:54+1:0801:56+1:082m--2279.954317mWRJhabua, Madhya Pradesh
10RTMRatlam Junction (7)X  03:25+5003:40+5615m52360.275495mWRRatlam, Madhya Pradesh
11KUHKhachrod (2)  04:02+1:1604:04+1:172m--2387.932497mWRUjjain, Madhya Pradesh
12NADNagda Junction (4)  04:30+4704:35+495m--2401.761468mWRNagda, Madhya Pradesh
13UJNUjjain Junction (8)X  05:30+5805:50+4820m--2457.380492mWRUjjain 456001, Madhya Pradesh
14TANTarana Road  06:15+1:0206:17+572m--2490.716498mWRMaksi, Madhya Pradesh
15MKCMaksi Junction (3)  06:53+3106:55+332m--2500.369513mWRMakshi, Madhya Pradesh
16SFYShajapur  07:19+4407:21+482m--2528.155450mWCRShajapur, Madhya Pradesh
17SFWSarangpur  07:50+4507:52+452m--2554.663422mWCRSarangpur, Madhya Pradesh
18PFRPachor Road  08:23+4508:25+472m--2587.363419mWCRPachore, Madhya Pradesh
19BRRGBiyavra Rajgarh  08:53+4808:55+482m--2616.542423mWCRBiaora, Madhya Pradesh
20CBKChachaura Binaganj (1)  09:38+4709:40+562m12646.949435mWCRGuna, Madhya Pradesh
21KHRJKumbhraj (1)  10:08+5210:10+572m12669.6143401mWCRManpura, Madhya Pradesh
22VJPVijay PurX  10:18+1:0610:20+1:062m--2688.721420mWCRVijaipur, Madhya Pradesh
23RTARuthiyai Junction (2)  10:35+1:0010:40+1:005m--2693.920414mWCRRuthiyai, Madhya Pradesh
24GUNAGuna Junction (3)X  11:40+3411:55+3615m22714.262477mWCRJn Point Indore/Gwalior/Bina/Kota, Madhya Pradesh
25ASKNAshok Nagar (2)  12:38+3812:40+392m--2758.372502mWCRAshoknagar, Madhya Pradesh
26PIAPipraigaon (3)X  13:02+4813:04+482m12784.746451mWCRAshoknagar, Madhya Pradesh
27MNVMungaoli (2)  13:29+4713:31+472m--2804.036403mWCRAshoknagar, Madhya Pradesh
28BINABina Junction (4)X14:20+2914:40+2920m42833.056414mWCRJn Pt - KATNI/GUNA/ BPL/JHS, Madhya Pradesh
29DUADhaura (3)X  15:17+4615:19+472m--2867.663407mNCRDhaura Tanda, Madhya Pradesh
30JLNJakhalaun (3)  15:30+4915:32+512m--2879.277394mNCRLalitpur(05176-272220), Uttar Pradesh
31LARLalitpur (3)X  15:45+4915:47+552m32896.092373mNCRLalitpur, Uttar Pradesh
32TBTTalbahat (4)X  16:13+1:0916:15+1:092m32935.871314mNCRKhaniyadhana Station Rd, Madhya Pradesh
33BABBabina (3)  16:36+1:1016:38+1:112m22960.841285mNCRBabina, Uttar Pradesh
34JHSJhansi Junction (7)  17:15+5217:30+5715m--2986.379259mNCRJhansi, Uttar Pradesh
35CGNChirgaon  17:54+1:3517:56+1:362m--21018.074192mNCRChirgaon, Uttar Pradesh
36MOTHMoth  18:15+1:4218:17+1:442m--21041.582175mNCRJhansi, Uttar Pradesh
37AITAit Junction (2)  18:42+1:5018:44+1:502m121075.659154mNCROrai(05162-252206), Uttar Pradesh
38ORAIOrai (3)X  19:09+1:3719:11+1:422m321100.273139mNCROrai(05162-252206), Uttar Pradesh
39KPIKalpiX  19:38+1:5919:40+2:002m--21133.048114mNCRKalpi Orai(05162-252206), Uttar Pradesh
40CNHChaunrah  19:48-19:50-2m--21139.365134mNCRNational Highway 25, Uttar Pradesh
41PHNPokhrayan (2)X  19:58+2:0020:00+2:002m121148.118133mNCRPukhrayan, Uttar Pradesh
42BZMBhimsen (1)  22:28+2122:30+232m121192.421136mNCRKanpur, Uttar Pradesh
43CNBKanpur Central (10)X  23:10+2123:20+2210m--21206.550128mNCRKANPUR-208 001, Uttar Pradesh
44ONUnnao Junction (5)X  23:41+3523:43+352m--21223.949129mNRUnnao, Uttar Pradesh
45LKOLucknow Charbagh (9)X  00:50+3301:05+3515m331278.540123mNR226004, Uttar Pradesh
46BBKBarabanki Junction (4)  01:48+4201:50+422m--31307.171122mNRPin-225001, Uttar Pradesh
47DYDDaryabad  02:22+5302:24+542m--31345.145116mNRFaizabad Rd, Uttar Pradesh
48RDLRudauli (2)  02:55+4702:57+472m--31368.234112mNRRudauli, Uttar Pradesh
49FDFaizabad Junction (5)  04:05+3404:10+435m--31406.327104mNRFaizabad, Uttar Pradesh
50AYAyodhya Junction (3)  04:25+5104:27+522m--31413.17098mNRAyodhya, Uttar Pradesh
51GGJGoshainGanj (3)X  04:54+1:0204:56+1:012m--31444.84498mNRGoshainganj, Uttar Pradesh
52ABPAkbarpur (2)  05:26+5305:28+562m--31467.06492mNRAkbarpur, Uttar Pradesh
53MLPRMalipur (2)  05:46+5805:48+592m--31486.13692mNRMalipur, Uttar Pradesh
54SHGShahganj Junction (4)06:30+4707:10+2640m--31511.16190mNRShahganj, Uttar Pradesh
55KRNDKhorason Road (2)  07:31+4107:33+412m--31532.24885mNERUttar Pradesh 276304 ?, Uttar Pradesh
56SMZSarai Mir (2)  07:44+4307:46+422m--31541.14687mNERTowa Ahirana, Uttar Pradesh
57AMHAzamgarh (2)  08:20+3808:25+395m131567.03081mNERAzamgarh, Uttar Pradesh
58MMAMuhammadabad (2)  09:08+3509:10+382m--31588.62980mNERMuhammadabad Marg, Uttar Pradesh
59MAUMau Junction (4)X  09:55+2810:10+2415m--31610.23975mNERMau., Uttar Pradesh
60IAAIndara Junction (3)  10:22+2610:24+272m--31618.15974mNERMau, Uttar Pradesh
61RSRRasra (2)X  10:53+3510:55+422m--31646.43970mNERRasra, Uttar Pradesh
62BUIBallia (3)  11:45+4411:50+445m--31679.17362mNERBallia, Uttar Pradesh
63SIPSuraimanpur  12:20+1:0012:22+1:002m--31715.53060mNERBallia, Uttar Pradesh
64CPRChhapra Junction (6)X  13:20+4513:40+1:0720m--31744.74358mNERDistt: Saran, Bihar
65SEESonpur Junction (4)X  14:55+2:0715:04+2:319m--31798.82556mECRSaran, Bihar
66HJPHajipur Junction (3)  15:17+2:0515:19+2:092m--31804.36155mECR06224-272230, Bihar
67MFPMuzaffarpur Junction (6)X  16:12+2:5816:22+2:5810m131858.14657mECRMuzaffarpur, Bihar
68SPJSamastipur Junction (9)XO17:30+2:5917:58+2:5728m--31910.23255mECRSamastipur, Bihar
69LSILaheria Sarai (1)  18:58+3:1719:00+3:192m131942.72052mECRDarbhanga, Bihar
70DBGDarbhanga Junction (5)  19:15+2:57-131947.7-54mECRDarbhanga, Bihar
Scroll to Top
Scroll to Bottom